Time;durP1;ratioP1;P1;durP2;ratioP2;P2;SDS_P1;SDS_P2;PMS_P1;PMS_P2;Temp;Humidity;BMP_temperature;BMP_pressure;BME280_temperature;BME280_humidity;BME280_pressure;Samples;Min_cycle;Max_cycle;Signal;HPM_P1;HPM_P2
2024/02/07 00:02:28;;;;;;;1999.90;999.90;;;;;;;7.45;100.00;100311.44;10218151;29;20051;-67
2024/02/07 00:07:30;;;;;;;1999.90;999.90;;;;;;;7.67;100.00;100320.72;10217293;29;20399;-67
2024/02/07 00:12:33;;;;;;;1999.90;999.90;;;;;;;7.08;100.00;100313.31;10217262;29;20487;-67
2024/02/07 00:17:35;;;;;;;1999.90;999.90;;;;;;;7.24;100.00;100313.38;10217520;29;20067;-67
2024/02/07 00:22:39;;;;;;;1999.90;999.90;;;;;;;6.65;100.00;100328.44;10217208;29;20047;-67
2024/02/07 00:27:41;;;;;;;1999.90;999.90;;;;;;;6.85;100.00;100319.66;10216491;29;20506;-67
2024/02/07 02:10:45;;;;;;;1999.90;999.90;;;;;;;6.22;100.00;100330.47;10172715;29;20048;-67
2024/02/07 02:15:48;;;;;;;1999.90;999.90;;;;;;;6.44;100.00;100336.38;10221124;29;20551;-66
2024/02/07 02:20:50;;;;;;;1999.90;999.90;;;;;;;6.15;100.00;100332.53;10220665;29;20059;-67
2024/02/07 02:26:05;;;;;;;1999.90;999.90;;;;;;;6.13;100.00;100329.16;10220604;29;20055;-66
2024/02/07 02:31:11;;;;;;;1999.90;999.90;;;;;;;6.08;100.00;100325.94;10220907;29;20051;-67
2024/02/07 02:36:15;;;;;;;1999.90;999.90;;;;;;;5.69;100.00;100326.81;10220755;29;20055;-66
2024/02/07 02:41:17;;;;;;;1999.90;999.90;;;;;;;5.85;100.00;100309.63;10221138;29;20133;-67
2024/02/07 02:46:20;;;;;;;1999.90;999.90;;;;;;;5.77;100.00;100325.53;10220984;29;20043;-67
2024/02/07 02:51:23;;;;;;;1999.90;999.90;;;;;;;5.65;100.00;100322.63;10220834;29;20107;-67
2024/02/07 02:56:26;;;;;;;1999.90;999.90;;;;;;;5.69;100.00;100334.59;10219459;29;20135;-67
2024/02/07 03:01:28;;;;;;;1999.90;999.90;;;;;;;5.56;100.00;100344.66;10220304;29;20135;-66
2024/02/07 03:12:03;;;;;;;1999.90;999.90;;;;;;;5.37;100.00;100370.59;10210611;29;20059;-67
2024/02/07 03:17:06;;;;;;;1999.90;999.90;;;;;;;5.53;100.00;100357.78;10219823;29;20052;-67
2024/02/07 03:22:09;;;;;;;1999.90;999.90;;;;;;;5.57;100.00;100374.94;10218405;29;20130;-67
2024/02/07 03:27:12;;;;;;;1999.90;999.90;;;;;;;5.53;100.00;100378.56;10218805;29;20051;-66
2024/02/07 03:32:15;;;;;;;1999.90;999.90;;;;;;;5.34;100.00;100388.88;10202492;29;20047;-67
2024/02/07 03:37:18;;;;;;;1999.90;999.90;;;;;;;4.99;100.00;100389.47;10219118;29;20051;-67
2024/02/07 03:42:21;;;;;;;1999.90;999.90;;;;;;;5.00;100.00;100379.91;10218675;29;20051;-67
2024/02/07 03:47:24;;;;;;;1999.90;999.90;;;;;;;5.01;100.00;100382.44;10218080;29;20415;-67
2024/02/07 03:52:27;;;;;;;1999.90;999.90;;;;;;;5.05;100.00;100387.53;10218468;29;20134;-66
2024/02/07 03:57:29;;;;;;;1999.90;999.90;;;;;;;5.05;100.00;100384.91;10217724;29;20509;-67
2024/02/07 04:02:32;;;;;;;1999.90;999.90;;;;;;;5.24;100.00;100387.59;10218073;29;20130;-67
2024/02/07 04:07:35;;;;;;;1999.90;999.90;;;;;;;4.81;100.00;100375.47;10217915;29;20052;-66
2024/02/07 05:16:33;;;;;;;1999.90;999.90;;;;;;;4.74;100.00;100383.53;10214869;29;20420;-66
2024/02/07 05:21:36;;;;;;;1999.90;999.90;;;;;;;4.68;100.00;100373.44;10215251;29;20052;-67
2024/02/07 05:26:39;;;;;;;1999.90;999.90;;;;;;;5.01;100.00;100384.22;10214381;29;20051;-67
2024/02/07 05:31:42;;;;;;;1999.90;999.90;;;;;;;4.84;100.00;100382.25;10215085;29;20048;-67
2024/02/07 05:36:44;;;;;;;1999.90;999.90;;;;;;;4.99;100.00;100386.00;10213212;29;20067;-66
2024/02/07 05:41:47;;;;;;;1999.90;999.90;;;;;;;4.84;100.00;100387.47;10214503;29;20051;-66
2024/02/07 05:46:49;;;;;;;1999.90;999.90;;;;;;;5.13;100.00;100404.47;10214089;29;20483;-66
2024/02/07 05:51:57;;;;;;;1999.90;999.90;;;;;;;5.30;100.00;100418.50;10213487;29;20048;-66
2024/02/07 05:57:04;;;;;;;1999.90;999.90;;;;;;;4.65;100.00;100426.25;10214566;29;20123;-67
2024/02/07 06:02:06;;;;;;;1999.90;999.90;;;;;;;5.30;100.00;100428.88;10213751;29;20448;-67
2024/02/07 06:07:09;;;;;;;1999.90;999.90;;;;;;;4.69;100.00;100445.13;10213703;29;20448;-67
2024/02/07 06:12:12;;;;;;;1999.90;999.90;;;;;;;4.74;100.00;100451.84;10213517;29;20415;-66
2024/02/07 06:17:14;;;;;;;1999.90;999.90;;;;;;;5.03;100.00;100444.66;10213565;29;20517;-67
2024/02/07 06:22:17;;;;;;;1999.90;999.90;;;;;;;5.33;100.00;100445.16;10196527;29;20070;-66
2024/02/07 06:27:19;;;;;;;1999.90;999.90;;;;;;;5.07;100.00;100442.78;10213424;29;20407;-67
2024/02/07 06:32:21;;;;;;;1999.90;999.90;;;;;;;5.08;100.00;100445.31;10214133;29;20131;-67
2024/02/07 06:37:24;;;;;;;1999.90;999.90;;;;;;;4.58;100.00;100467.13;10215617;29;20058;-67
2024/02/07 06:42:26;;;;;;;1999.90;999.90;;;;;;;4.80;100.00;100469.75;10221106;29;20052;-67
2024/02/07 06:47:28;;;;;;;1999.90;999.90;;;;;;;4.89;100.00;100460.75;10221012;29;20077;-66
2024/02/07 06:52:31;;;;;;;1999.90;999.90;;;;;;;4.99;100.00;100469.03;10220163;29;20058;-67
2024/02/07 06:57:34;;;;;;;1999.90;999.90;;;;;;;4.99;100.00;100477.69;10220606;29;20048;-67
2024/02/07 07:02:36;;;;;;;1999.90;999.90;;;;;;;4.41;100.00;100483.31;10219174;29;20102;-67
2024/02/07 07:07:38;;;;;;;1999.90;999.90;;;;;;;4.61;100.00;100479.97;10219607;29;20484;-67
2024/02/07 07:12:41;;;;;;;1999.90;999.90;;;;;;;4.67;100.00;100475.47;10219648;29;20079;-67
2024/02/07 07:17:44;;;;;;;1999.90;999.90;;;;;;;4.63;100.00;100479.94;10219877;29;20106;-67
2024/02/07 07:22:46;;;;;;;1999.90;999.90;;;;;;;4.77;100.00;100492.38;10218958;29;20058;-66
2024/02/07 07:28:05;;;;;;;1999.90;999.90;;;;;;;4.73;100.00;100496.00;10219487;29;20051;-67
2024/02/07 07:33:07;;;;;;;1999.90;999.90;;;;;;;5.10;100.00;100486.78;10219296;29;20052;-67
2024/02/07 07:38:10;;;;;;;1999.90;999.90;;;;;;;4.89;100.00;100497.06;10219123;29;20055;-67
2024/02/07 07:43:12;;;;;;;1999.90;999.90;;;;;;;4.19;100.00;100498.81;10218259;29;20583;-67
2024/02/07 07:48:17;;;;;;;1999.90;999.90;;;;;;;5.13;100.00;100497.03;10216137;29;20059;-67
2024/02/07 07:53:25;;;;;;;1999.90;999.90;;;;;;;4.95;100.00;100511.56;10218623;29;20080;-67
2024/02/07 07:58:27;;;;;;;1999.90;999.90;;;;;;;5.57;100.00;100502.19;10217258;29;20051;-67
2024/02/07 08:03:42;;;;;;;1999.90;999.90;;;;;;;5.07;100.00;100520.63;10217521;29;20047;-67
2024/02/07 08:08:44;;;;;;;1999.90;999.90;;;;;;;5.54;100.00;100526.50;10216805;29;20138;-67
2024/02/07 08:13:47;;;;;;;1999.90;999.90;;;;;;;5.38;100.00;100530.66;10217296;29;20106;-67
2024/02/07 08:18:50;;;;;;;1999.90;999.90;;;;;;;5.02;100.00;100537.22;10217024;29;20562;-66
2024/02/07 08:23:57;;;;;;;1999.90;999.90;;;;;;;5.08;100.00;100554.31;10216285;29;20047;-67
2024/02/07 08:28:59;;;;;;;1999.90;999.90;;;;;;;4.59;100.00;100558.72;10217176;29;20075;-67
2024/02/07 08:34:02;;;;;;;1999.90;999.90;;;;;;;4.91;100.00;100551.50;10215844;29;20103;-67
2024/02/07 08:39:04;;;;;;;1999.90;999.90;;;;;;;4.81;100.00;100562.22;10216815;29;20062;-67
2024/02/07 08:44:07;;;;;;;1999.90;999.90;;;;;;;4.65;100.00;100571.47;10215399;29;20051;-67
2024/02/07 08:49:10;;;;;;;1999.90;999.90;;;;;;;5.28;100.00;100565.66;10215271;29;20051;-67
2024/02/07 08:54:13;;;;;;;1999.90;999.90;;;;;;;5.25;100.00;100582.22;10214920;29;20059;-67
2024/02/07 08:59:15;;;;;;;1999.90;999.90;;;;;;;5.10;100.00;100575.00;10215960;29;20083;-67
2024/02/07 09:04:18;;;;;;;1999.90;999.90;;;;;;;5.30;100.00;100575.09;10214632;29;20123;-67
2024/02/07 09:09:20;;;;;;;1999.90;999.90;;;;;;;5.44;100.00;100582.31;10214782;29;20056;-67
2024/02/07 09:14:22;;;;;;;1999.90;999.90;;;;;;;5.36;100.00;100593.03;10214958;29;20055;-67
2024/02/07 09:19:25;;;;;;;1999.90;999.90;;;;;;;5.29;100.00;100586.38;10215464;29;20061;-67
2024/02/07 09:24:28;;;;;;;1999.90;999.90;;;;;;;5.45;100.00;100580.59;10215187;29;20048;-67
2024/02/07 09:29:30;;;;;;;1999.90;999.90;;;;;;;5.45;100.00;100565.00;10215166;29;20086;-67
2024/02/07 09:34:33;;;;;;;1999.90;999.90;;;;;;;5.34;100.00;100579.25;10214440;29;20559;-67
2024/02/07 09:39:35;;;;;;;1999.90;999.90;;;;;;;5.74;100.00;100593.25;10214902;29;20055;-66
2024/02/07 09:44:45;;;;;;;1999.90;999.90;;;;;;;5.86;100.00;100615.28;10213592;29;20044;-67
2024/02/07 09:49:48;;;;;;;1999.90;999.90;;;;;;;5.74;100.00;100605.41;10213072;29;20087;-67
2024/02/07 09:54:54;;;;;;;1999.90;999.90;;;;;;;5.95;100.00;100604.53;10213679;29;20048;-67
2024/02/07 09:59:57;;;;;;;1999.90;999.90;;;;;;;6.40;100.00;100607.03;10198431;29;20075;-67
2024/02/07 10:04:59;;;;;;;1999.90;999.90;;;;;;;6.44;100.00;100600.78;10212652;29;20438;-67
2024/02/07 10:10:02;;;;;;;1999.90;999.90;;;;;;;6.17;100.00;100597.59;10213232;29;20098;-67
2024/02/07 10:15:06;;;;;;;1999.90;999.90;;;;;;;6.59;100.00;100587.13;10218628;29;20059;-66
2024/02/07 10:20:11;;;;;;;1999.90;999.90;;;;;;;6.53;100.00;100594.34;10222065;29;20055;-67
2024/02/07 10:25:15;;;;;;;1999.90;999.90;;;;;;;6.28;100.00;100587.59;10220670;29;20044;-67
2024/02/07 10:30:18;;;;;;;1999.90;999.90;;;;;;;6.22;100.00;100598.25;10221064;29;20059;-67
2024/02/07 10:35:20;;;;;;;1999.90;999.90;;;;;;;7.13;100.00;100584.69;10221501;29;20056;-67
2024/02/07 10:40:24;;;;;;;1999.90;999.90;;;;;;;7.20;100.00;100599.09;10220149;29;20052;-67
2024/02/07 10:45:26;;;;;;;1999.90;999.90;;;;;;;7.23;100.00;100585.94;10221061;29;20507;-66
2024/02/07 10:50:29;;;;;;;1999.90;999.90;;;;;;;7.04;100.00;100582.50;10220933;29;20150;-67
2024/02/07 10:55:32;;;;;;;1999.90;999.90;;;;;;;6.99;100.00;100587.06;10218060;29;20051;-67
2024/02/07 11:00:34;;;;;;;1999.90;999.90;;;;;;;6.69;100.00;100579.72;10218711;29;20052;-67
2024/02/07 11:05:38;;;;;;;1999.90;999.90;;;;;;;6.94;100.00;100579.47;10220302;29;20051;-67
2024/02/07 11:10:41;;;;;;;1999.90;999.90;;;;;;;7.19;100.00;100583.56;10233468;23;20055;-68
2024/02/07 11:15:44;;;;;;;1999.90;999.90;;;;;;;7.27;100.00;100573.63;10219472;29;20055;-68
2024/02/07 11:20:47;;;;;;;1999.90;999.90;;;;;;;7.46;100.00;100562.34;10218114;29;20079;-68
2024/02/07 11:25:50;;;;;;;1999.90;999.90;;;;;;;7.46;100.00;100570.16;10217207;29;20050;-68
2024/02/07 11:30:55;;;;;;;1999.90;999.90;;;;;;;7.57;100.00;100563.50;10218345;29;20078;-68
2024/02/07 11:36:07;;;;;;;1999.90;999.90;;;;;;;7.57;100.00;100560.06;10217528;29;20491;-68
2024/02/07 11:41:10;;;;;;;1999.90;999.90;;;;;;;7.86;100.00;100545.56;10217869;29;20047;-68
2024/02/07 11:46:12;;;;;;;1999.90;999.90;;;;;;;7.92;100.00;100552.28;10218329;29;20083;-68
2024/02/07 11:51:16;;;;;;;1999.90;999.90;;;;;;;8.68;98.53;100560.50;10201397;29;20508;-68
2024/02/07 11:56:22;;;;;;;1999.90;999.90;;;;;;;9.48;91.96;100558.75;10218520;29;20062;-68
2024/02/07 12:01:26;;;;;;;1999.90;999.90;;;;;;;9.26;89.96;100572.19;10218925;29;20055;-72
2024/02/07 12:06:29;;;;;;;1999.90;999.90;;;;;;;9.69;90.54;100558.47;10218140;29;20059;-68
2024/02/07 12:11:32;;;;;;;1999.90;999.90;;;;;;;9.93;90.77;100552.75;10217213;29;20087;-68
2024/02/07 12:16:37;;;;;;;1999.90;999.90;;;;;;;9.10;84.41;100553.91;10215974;29;20059;-68
2024/02/07 12:21:39;;;;;;;1999.90;999.90;;;;;;;9.34;88.43;100571.75;10217423;29;20047;-68
2024/02/07 12:26:41;;;;;;;1999.90;999.90;;;;;;;8.52;80.88;100564.84;10217383;29;20055;-68
2024/02/07 12:31:44;;;;;;;1999.90;999.90;;;;;;;9.01;80.96;100564.00;10216525;29;20047;-68
2024/02/07 12:36:46;;;;;;;1999.90;999.90;;;;;;;9.32;85.65;100559.72;10215952;29;20491;-68
2024/02/07 12:41:49;;;;;;;1999.90;999.90;;;;;;;9.20;80.87;100556.84;10214942;29;20043;-68
2024/02/07 12:46:51;;;;;;;1999.90;999.90;;;;;;;9.05;86.29;100548.09;10215975;29;20079;-68
2024/02/07 12:51:54;;;;;;;1999.90;999.90;;;;;;;9.07;78.68;100540.16;10215794;29;20492;-68
2024/02/07 12:56:57;;;;;;;1999.90;999.90;;;;;;;8.19;74.05;100539.59;10215142;29;20078;-68
2024/02/07 13:02:02;;;;;;;1999.90;999.90;;;;;;;8.92;79.78;100540.06;10183472;29;20051;-68
2024/02/07 13:07:09;;;;;;;1999.90;999.90;;;;;;;8.92;81.08;100537.47;10215781;29;20070;-68
2024/02/07 13:12:11;;;;;;;1999.90;999.90;;;;;;;8.90;84.46;100533.25;10214742;29;20075;-68
2024/02/07 13:17:29;;;;;;;1999.90;999.90;;;;;;;8.53;86.20;100527.41;10215077;29;20060;-68
2024/02/07 13:22:32;;;;;;;1999.90;999.90;;;;;;;8.57;85.29;100520.25;10214216;29;20051;-68
2024/02/07 13:27:34;;;;;;;1999.90;999.90;;;;;;;8.60;80.83;100515.72;10214053;29;20052;-68
2024/02/07 13:32:37;;;;;;;1999.90;999.90;;;;;;;8.59;81.67;100521.88;10214997;29;20048;-68
2024/02/07 13:37:39;;;;;;;1999.90;999.90;;;;;;;8.58;83.44;100516.75;10213751;29;20083;-68
2024/02/07 13:42:41;;;;;;;1999.90;999.90;;;;;;;8.59;85.91;100513.19;10214745;29;20134;-68
2024/02/07 13:47:45;;;;;;;1999.90;999.90;;;;;;;8.49;85.14;100518.03;10196901;29;20055;-68
2024/02/07 13:52:47;;;;;;;1999.90;999.90;;;;;;;8.53;84.97;100514.38;10196544;29;20044;-68
2024/02/07 13:57:50;;;;;;;1999.90;999.90;;;;;;;8.38;81.42;100515.97;10212724;29;20472;-68
2024/02/07 14:02:52;;;;;;;1999.90;999.90;;;;;;;8.42;87.26;100508.84;10214449;29;20056;-68
2024/02/07 14:07:55;;;;;;;1999.90;999.90;;;;;;;8.41;85.23;100509.78;10214129;29;20143;-68
2024/02/07 14:12:57;;;;;;;1999.90;999.90;;;;;;;8.51;85.53;100508.41;10214377;29;20107;-68
2024/02/07 14:18:00;;;;;;;1999.90;999.90;;;;;;;8.41;85.80;100494.13;10213623;29;20056;-68
2024/02/07 14:23:03;;;;;;;1999.90;999.90;;;;;;;8.57;81.24;100491.56;10212999;29;20081;-68
2024/02/07 14:28:05;;;;;;;1999.90;999.90;;;;;;;8.25;85.48;100484.47;10196593;29;20411;-68
2024/02/07 14:33:08;;;;;;;1999.90;999.90;;;;;;;7.96;82.43;100471.19;10214009;29;20044;-68
2024/02/07 14:38:12;;;;;;;1999.90;999.90;;;;;;;8.09;86.01;100468.81;10213325;29;20464;-68
2024/02/07 14:43:14;;;;;;;1999.90;999.90;;;;;;;7.67;82.73;100451.84;10212697;29;20090;-68
2024/02/07 14:48:17;;;;;;;1999.90;999.90;;;;;;;7.91;82.94;100456.72;10213739;29;20086;-68
2024/02/07 14:53:21;;;;;;;1999.90;999.90;;;;;;;7.77;89.12;100445.25;10213160;29;20094;-71
2024/02/07 14:58:23;;;;;;;1999.90;999.90;;;;;;;7.48;88.96;100445.88;10215250;29;20102;-73
2024/02/07 15:03:25;;;;;;;1999.90;999.90;;;;;;;7.66;87.86;100447.53;10219361;29;20051;-73
2024/02/07 15:08:28;;;;;;;1999.90;999.90;;;;;;;7.63;87.21;100440.75;10218888;29;20062;-73
2024/02/07 15:13:30;;;;;;;1999.90;999.90;;;;;;;7.33;84.79;100450.06;10218384;29;20384;-73
2024/02/07 15:18:33;;;;;;;1999.90;999.90;;;;;;;6.94;82.22;100438.91;10219384;29;20483;-71
2024/02/07 15:23:35;;;;;;;1999.90;999.90;;;;;;;6.83;83.60;100442.03;10219780;29;20130;-73
2024/02/07 15:28:38;;;;;;;1999.90;999.90;;;;;;;7.20;83.84;100437.66;10217879;29;20518;-73
2024/02/07 15:33:40;;;;;;;1999.90;999.90;;;;;;;7.13;89.49;100443.22;10219251;29;20048;-72
2024/02/07 15:38:46;;;;;;;1999.90;999.90;;;;;;;6.97;91.96;100443.16;10202898;29;20130;-72
2024/02/07 15:43:49;;;;;;;1999.90;999.90;;;;;;;7.00;91.93;100440.41;10219590;29;20059;-72
2024/02/07 15:48:51;;;;;;;1999.90;999.90;;;;;;;6.91;89.69;100444.28;10217775;29;20058;-66
2024/02/07 15:54:09;;;;;;;1999.90;999.90;;;;;;;6.87;92.13;100442.75;10218811;29;20111;-66
2024/02/07 15:59:13;;;;;;;1999.90;999.90;;;;;;;6.62;94.07;100436.13;10218470;29;20056;-66
2024/02/07 16:04:15;;;;;;;1999.90;999.90;;;;;;;6.36;99.00;100434.69;10218199;29;20052;-66
2024/02/07 16:09:18;;;;;;;1999.90;999.90;;;;;;;6.31;100.00;100421.91;10215702;29;20138;-66
2024/02/07 16:14:21;;;;;;;1999.90;999.90;;;;;;;6.18;100.00;100418.16;10217905;29;20131;-66
2024/02/07 16:19:23;;;;;;;1999.90;999.90;;;;;;;6.20;100.00;100412.91;10217098;29;20404;-66
2024/02/07 16:24:26;;;;;;;1999.90;999.90;;;;;;;5.99;100.00;100405.16;10217476;29;20059;-66
2024/02/07 16:29:30;;;;;;;1999.90;999.90;;;;;;;5.93;100.00;100405.38;10217307;29;20056;-66
2024/02/07 16:34:32;;;;;;;1999.90;999.90;;;;;;;5.81;100.00;100406.78;10216661;29;20559;-66
2024/02/07 16:39:38;;;;;;;1999.90;999.90;;;;;;;5.81;100.00;100396.38;10216298;29;20554;-67
2024/02/07 16:44:40;;;;;;;1999.90;999.90;;;;;;;5.84;100.00;100398.84;10198875;29;20049;-67
2024/02/07 16:49:43;;;;;;;1999.90;999.90;;;;;;;5.73;100.00;100398.47;10216269;29;20051;-66
2024/02/07 16:54:46;;;;;;;1999.90;999.90;;;;;;;5.67;100.00;100397.00;10214928;29;20134;-66
2024/02/07 16:59:48;;;;;;;1999.90;999.90;;;;;;;5.54;100.00;100396.66;10216231;29;20051;-66
2024/02/07 17:04:50;;;;;;;1999.90;999.90;;;;;;;5.83;100.00;100404.94;10215288;29;20452;-66
2024/02/07 17:09:53;;;;;;;1999.90;999.90;;;;;;;5.43;100.00;100405.81;10213944;29;20067;-66
2024/02/07 17:14:55;;;;;;;1999.90;999.90;;;;;;;5.48;100.00;100409.94;10215530;29;20058;-66
2024/02/07 17:19:58;;;;;;;1999.90;999.90;;;;;;;5.32;100.00;100401.09;10214905;29;20415;-66
2024/02/07 17:25:00;;;;;;;1999.90;999.90;;;;;;;5.29;100.00;100396.88;10215455;29;20047;-66
2024/02/07 17:30:03;;;;;;;1999.90;999.90;;;;;;;5.51;100.00;100402.00;10214630;29;20468;-66
2024/02/07 17:35:09;;;;;;;1999.90;999.90;;;;;;;5.40;100.00;100402.47;10214292;29;20506;-66
2024/02/07 17:40:12;;;;;;;1999.90;999.90;;;;;;;5.27;100.00;100400.44;10214300;29;20528;-66
2024/02/07 17:45:16;;;;;;;1999.90;999.90;;;;;;;5.49;100.00;100402.97;10214804;29;20107;-66
2024/02/07 17:50:23;;;;;;;1999.90;999.90;;;;;;;5.41;100.00;100405.88;10213660;29;20062;-66
2024/02/07 17:55:25;;;;;;;1999.90;999.90;;;;;;;5.42;100.00;100415.38;10212967;29;20456;-67
2024/02/07 18:00:28;;;;;;;1999.90;999.90;;;;;;;5.39;100.00;100418.94;10213985;29;20056;-67
2024/02/07 18:05:32;;;;;;;1999.90;999.90;;;;;;;5.39;100.00;100413.75;10214433;29;20131;-67
2024/02/07 18:10:35;;;;;;;1999.90;999.90;;;;;;;5.26;100.00;100419.50;10213681;29;20063;-67
2024/02/07 18:15:38;;;;;;;1999.90;999.90;;;;;;;5.37;100.00;100425.13;10213070;29;20051;-67
2024/02/07 18:20:42;;;;;;;1999.90;999.90;;;;;;;5.19;100.00;100406.81;10212977;29;20103;-67
2024/02/07 18:25:44;;;;;;;1999.90;999.90;;;;;;;5.26;100.00;100399.63;10212284;29;20486;-67
2024/02/07 18:30:48;;;;;;;1999.90;999.90;;;;;;;5.09;100.00;100394.25;10213377;29;20388;-67
2024/02/07 18:35:51;;;;;;;1999.90;999.90;;;;;;;4.81;100.00;100403.16;10219682;29;20048;-67
2024/02/07 18:40:54;;;;;;;1999.90;999.90;;;;;;;4.74;100.00;100394.78;10220183;29;20056;-67
2024/02/07 18:45:57;;;;;;;1999.90;999.90;;;;;;;4.48;100.00;100390.59;10220044;29;20058;-67
2024/02/07 18:50:59;;;;;;;1999.90;999.90;;;;;;;4.67;100.00;100380.34;10220469;29;20052;-67
2024/02/07 18:56:01;;;;;;;1999.90;999.90;;;;;;;4.11;100.00;100389.41;10220874;29;20051;-67
2024/02/07 19:01:05;;;;;;;1999.90;999.90;;;;;;;3.97;100.00;100384.75;10219935;29;20388;-67
2024/02/07 19:06:07;;;;;;;1999.90;999.90;;;;;;;3.96;100.00;100390.81;10220598;29;20087;-66
2024/02/07 19:11:11;;;;;;;1999.90;999.90;;;;;;;4.08;100.00;100399.88;10219527;29;20059;-67
2024/02/07 19:16:14;;;;;;;1999.90;999.90;;;;;;;4.17;100.00;100409.91;10220106;29;20054;-67
2024/02/07 19:21:19;;;;;;;1999.90;999.90;;;;;;;4.00;100.00;100392.41;10219306;29;20115;-67
2024/02/07 19:26:22;;;;;;;1999.90;999.90;;;;;;;3.69;100.00;100392.66;10219907;29;20055;-67
2024/02/07 19:31:24;;;;;;;1999.90;999.90;;;;;;;3.45;100.00;100390.00;10218977;29;20052;-67
2024/02/07 19:36:26;;;;;;;1999.90;999.90;;;;;;;3.20;100.00;100390.00;10219318;29;20056;-67
2024/02/07 19:41:29;;;;;;;1999.90;999.90;;;;;;;3.17;100.00;100377.16;10219216;29;20048;-67
2024/02/07 19:46:31;;;;;;;1999.90;999.90;;;;;;;3.21;100.00;100376.19;10217849;29;20052;-67
2024/02/07 19:51:34;;;;;;;1999.90;999.90;;;;;;;3.21;100.00;100376.19;10217089;29;20055;-67
2024/02/07 19:56:36;;;;;;;1999.90;999.90;;;;;;;2.97;100.00;100370.91;10216862;29;20523;-66
2024/02/07 20:01:39;;;;;;;1999.90;999.90;;;;;;;2.98;100.00;100362.25;10217301;29;20134;-66
2024/02/07 20:06:43;;;;;;;1999.90;999.90;;;;;;;2.97;100.00;100370.06;10217538;29;20054;-67
2024/02/07 20:11:45;;;;;;;1999.90;999.90;;;;;;;3.22;100.00;100372.69;10217449;29;20064;-67
2024/02/07 20:16:47;;;;;;;1999.90;999.90;;;;;;;2.76;100.00;100369.88;10217848;29;20071;-66
2024/02/07 20:21:50;;;;;;;1999.90;999.90;;;;;;;2.72;100.00;100364.84;10217684;29;20055;-66
2024/02/07 20:26:54;;;;;;;1999.90;999.90;;;;;;;2.86;100.00;100373.00;10216234;29;20047;-66
2024/02/07 20:32:01;;;;;;;1999.90;999.90;;;;;;;2.86;100.00;100382.47;10217320;29;20082;-67
2024/02/07 20:37:04;;;;;;;1999.90;999.90;;;;;;;2.65;100.00;100390.03;10217100;29;20095;-67
2024/02/07 20:42:06;;;;;;;1999.90;999.90;;;;;;;2.56;100.00;100383.41;10216934;29;20052;-67
2024/02/07 20:47:08;;;;;;;1999.90;999.90;;;;;;;2.71;100.00;100369.16;10216618;29;20074;-67
2024/02/07 20:52:11;;;;;;;1999.90;999.90;;;;;;;2.36;100.00;100378.84;10215909;29;20051;-67
2024/02/07 20:57:13;;;;;;;1999.90;999.90;;;;;;;2.88;100.00;100385.88;10215444;29;20397;-67
2024/02/07 21:02:16;;;;;;;1999.90;999.90;;;;;;;2.75;100.00;100391.44;10215619;29;20570;-67
2024/02/07 21:07:18;;;;;;;1999.90;999.90;;;;;;;2.48;100.00;100389.72;10215872;29;20063;-67
2024/02/07 21:12:21;;;;;;;1999.90;999.90;;;;;;;2.21;100.00;100390.47;10215175;29;20087;-67
2024/02/07 21:17:23;;;;;;;1999.90;999.90;;;;;;;2.44;100.00;100376.03;10215637;29;20062;-67
2024/02/07 21:22:25;;;;;;;1999.90;999.90;;;;;;;2.21;100.00;100380.13;10214816;29;20396;-67
2024/02/07 21:27:28;;;;;;;1999.90;999.90;;;;;;;2.15;100.00;100388.09;10214109;29;20103;-67
2024/02/07 21:32:30;;;;;;;1999.90;999.90;;;;;;;2.18;100.00;100384.56;10214579;29;20087;-67
2024/02/07 21:37:32;;;;;;;1999.90;999.90;;;;;;;2.17;100.00;100391.47;10214641;29;20470;-67
2024/02/07 21:42:35;;;;;;;1999.90;999.90;;;;;;;2.05;100.00;100384.06;10214328;29;20161;-67
2024/02/07 21:47:37;;;;;;;1999.90;999.90;;;;;;;1.98;100.00;100385.13;10214084;29;20048;-67
2024/02/07 21:52:40;;;;;;;1999.90;999.90;;;;;;;2.26;100.00;100382.59;10214707;29;20051;-67
2024/02/07 21:57:42;;;;;;;1999.90;999.90;;;;;;;1.93;100.00;100376.66;10214168;29;20464;-67
2024/02/07 22:02:45;;;;;;;1999.90;999.90;;;;;;;1.77;100.00;100371.09;10214489;29;20057;-67
2024/02/07 22:07:47;;;;;;;1999.90;999.90;;;;;;;1.82;100.00;100380.41;10214601;29;20488;-67
2024/02/07 22:12:50;;;;;;;1999.90;999.90;;;;;;;2.04;100.00;100366.88;10221727;29;20567;-67
2024/02/07 22:17:52;;;;;;;1999.90;999.90;;;;;;;1.82;100.00;100354.59;10222323;29;20126;-67
2024/02/07 22:22:55;;;;;;;1999.90;999.90;;;;;;;1.72;100.00;100342.84;10221380;29;20107;-67
2024/02/07 22:27:57;;;;;;;1999.90;999.90;;;;;;;1.89;100.00;100352.69;10220682;29;20051;-67
2024/02/07 22:32:59;;;;;;;1999.90;999.90;;;;;;;1.81;100.00;100355.47;10220022;29;20069;-67
2024/02/07 22:38:03;;;;;;;1999.90;999.90;;;;;;;1.72;100.00;100349.75;10220961;29;20050;-67
2024/02/07 22:43:06;;;;;;;1999.90;999.90;;;;;;;1.61;100.00;100352.59;10220174;29;20059;-67
2024/02/07 22:48:08;;;;;;;1999.90;999.90;;;;;;;1.89;100.00;100344.09;10220079;29;20058;-67
2024/02/07 22:53:11;;;;;;;1999.90;999.90;;;;;;;1.79;100.00;100351.25;10221017;29;20048;-67
2024/02/07 22:58:13;;;;;;;1999.90;999.90;;;;;;;1.90;100.00;100348.34;10220932;29;20048;-67
2024/02/07 23:03:19;;;;;;;1999.90;999.90;;;;;;;1.75;100.00;100349.63;10220754;29;20083;-67
2024/02/07 23:08:24;;;;;;;1999.90;999.90;;;;;;;1.66;100.00;100355.91;10219599;29;20471;-67
2024/02/07 23:13:26;;;;;;;1999.90;999.90;;;;;;;1.69;100.00;100345.50;10219178;29;20056;-67
2024/02/07 23:18:28;;;;;;;1999.90;999.90;;;;;;;1.94;100.00;100352.56;10219885;29;20054;-67
2024/02/07 23:23:31;;;;;;;1999.90;999.90;;;;;;;1.77;100.00;100353.88;10225876;23;20057;-66
2024/02/07 23:28:34;;;;;;;1999.90;999.90;;;;;;;1.73;100.00;100354.84;10218084;29;20442;-66
2024/02/07 23:33:36;;;;;;;1999.90;999.90;;;;;;;1.86;100.00;100361.34;10219621;29;20054;-66
2024/02/07 23:38:39;;;;;;;1999.90;999.90;;;;;;;1.84;100.00;100364.88;10219555;29;20063;-66
2024/02/07 23:43:41;;;;;;;1999.90;999.90;;;;;;;2.09;100.00;100359.84;10219134;29;20074;-66
2024/02/07 23:48:43;;;;;;;1999.90;999.90;;;;;;;1.91;100.00;100357.81;10217820;29;20131;-66
2024/02/07 23:53:46;;;;;;;1999.90;999.90;;;;;;;1.91;100.00;100355.22;10201402;29;20078;-66
2024/02/07 23:58:49;;;;;;;1999.90;999.90;;;;;;;2.14;100.00;100351.97;10218646;29;20082;-66
